Bay Village, OH

1:12 AM EDT on September 04, 2015 (GMT -0400)
Westlake Ohio, 1 mile south of Lake Erie | | Change Station
CLOSE
Current Station
Personal Weather Station
Location: Westlake, OH
Elevation: 659 ft
Nearby Weather Stations

Elev 659 ft 41.47 °N, 81.92 °W | Updated 8 minutes ago

Rain
Rain
67.8 °F
Feels Like 67.8 °F
N
0.0
Wind Variable Wind from WSW
Gusts 0.0 mph

Today
High -- | Low -- °F
--% Chance of Precip.
Yesterday
High -- | Low -- °F
Precip. -- in
6:56 AM 7:56 PM
Waning Gibbous, 63% visible
Pressure 29.99 in
Visibility 10.0 miles
Clouds Few 5000 ft
Mostly Cloudy 11000 ft
Overcast 15000 ft
Dew Point 67 °F
Humidity 96%
Rainfall 0.07 in
Snow Depth Not available.
UV 0.0 out of 12
Pollen 9.60 out of 12
Air Quality Not available.
Flu Activity Not available.
METAR KCLE 040451Z 16006KT 10SM -RA FEW050 BKN110 OVC150 20/18 A3001 RMK AO2 TSE44 SLP156 FRQ LTGIC DSNT SW-NW CB DSNT SW-NW MOV SE P0013 T02000183 403220194
Pressure 29.99 in
Visibility 10.0 miles
Clouds Few 5000 ft
Mostly Cloudy 11000 ft
Overcast 15000 ft
Dew Point 67 °F
Humidity 96%
Rainfall 0.07 in
Snow Depth Not available.
UV 0.0 out of 12
Pollen 9.60 out of 12
Air Quality Not available.
Flu Activity Not available.
METAR KCLE 040451Z 16006KT 10SM -RA FEW050 BKN110 OVC150 20/18 A3001 RMK AO2 TSE44 SLP156 FRQ LTGIC DSNT SW-NW CB DSNT SW-NW MOV SE P0013 T02000183 403220194

10-Day Weather Forecast

×

Almanac

Astronomy

Sep. 04, 2015 Rise Set
Actual Time
Civil Twilight
Nautical Twilight
Astronomical Twilight
Moon
Length of Visible Light
Length of Day
Tomorrow will be .
, % of the Moon is Illuminated

Today's Extremes

State Highs State Lows

Community

WunderPhotos

Upload Photos

1,852,129 photos uploaded!

WunderBlogs® & News

Nearby

Air Quality

  Air Quality AQ Index Pollutant
Not available.

Snow Depth

Station Depth Elevation

Earthquake Activity

City Distance Mag. Time & Date
Minimum magnitude displayed is 2.5.

Coastal Water Temperatures

Place Temperature

Stations

Nearby Weather Stations

Station Location Temp. Windchill Dew Point Humidity Wind Precip. Elev Updated Type